sensor_id;sensor_type;location;lat;lon;timestamp;P1;durP1;ratioP1;P2;durP2;ratioP2
43146;SDS011;28752;48.266;7.402;2023-05-16T02:16:24;7.65;;;4.47;;
43146;SDS011;28752;48.266;7.402;2023-05-16T02:18:50;7.43;;;4.43;;
43146;SDS011;28752;48.266;7.402;2023-05-16T02:21:15;8.17;;;4.57;;
43146;SDS011;28752;48.266;7.402;2023-05-16T02:23:40;7.43;;;4.53;;
43146;SDS011;28752;48.266;7.402;2023-05-16T02:26:06;7.70;;;4.40;;
43146;SDS011;28752;48.266;7.402;2023-05-16T02:28:31;7.00;;;4.07;;
43146;SDS011;28752;48.266;7.402;2023-05-16T02:31:00;7.80;;;4.50;;
43146;SDS011;28752;48.266;7.402;2023-05-16T02:33:26;8.55;;;4.95;;
43146;SDS011;28752;48.266;7.402;2023-05-16T02:35:52;6.97;;;3.95;;
43146;SDS011;28752;48.266;7.402;2023-05-16T02:40:45;7.18;;;4.18;;
43146;SDS011;28752;48.266;7.402;2023-05-16T02:43:11;7.50;;;4.10;;
43146;SDS011;28752;48.266;7.402;2023-05-16T02:45:36;7.13;;;4.30;;
43146;SDS011;28752;48.266;7.402;2023-05-16T02:48:02;8.27;;;4.88;;
43146;SDS011;28752;48.266;7.402;2023-05-16T02:50:27;8.90;;;4.93;;
43146;SDS011;28752;48.266;7.402;2023-05-16T02:52:53;8.73;;;4.90;;
43146;SDS011;28752;48.266;7.402;2023-05-16T02:55:18;8.67;;;5.27;;
43146;SDS011;28752;48.266;7.402;2023-05-16T02:57:43;8.67;;;4.83;;
43146;SDS011;28752;48.266;7.402;2023-05-16T03:00:09;9.70;;;5.07;;
43146;SDS011;28752;48.266;7.402;2023-05-16T03:02:35;8.57;;;5.18;;
43146;SDS011;28752;48.266;7.402;2023-05-16T03:05:01;7.53;;;4.43;;
43146;SDS011;28752;48.266;7.402;2023-05-16T03:07:26;8.23;;;5.07;;
43146;SDS011;28752;48.266;7.402;2023-05-16T03:09:52;8.70;;;5.00;;
43146;SDS011;28752;48.266;7.402;2023-05-16T03:12:17;9.03;;;4.90;;
43146;SDS011;28752;48.266;7.402;2023-05-16T03:14:43;10.27;;;5.27;;
43146;SDS011;28752;48.266;7.402;2023-05-16T03:17:08;9.85;;;5.32;;
43146;SDS011;28752;48.266;7.402;2023-05-16T03:19:34;9.27;;;5.00;;
43146;SDS011;28752;48.266;7.402;2023-05-16T03:21:59;11.13;;;6.63;;
43146;SDS011;28752;48.266;7.402;2023-05-16T03:24:24;9.63;;;5.30;;
43146;SDS011;28752;48.266;7.402;2023-05-16T03:26:50;9.13;;;5.43;;
43146;SDS011;28752;48.266;7.402;2023-05-16T03:29:16;9.45;;;5.32;;
43146;SDS011;28752;48.266;7.402;2023-05-16T03:31:41;10.80;;;5.97;;
43146;SDS011;28752;48.266;7.402;2023-05-16T03:34:06;10.30;;;5.43;;
43146;SDS011;28752;48.266;7.402;2023-05-16T03:36:32;10.73;;;5.80;;
43146;SDS011;28752;48.266;7.402;2023-05-16T03:38:57;10.93;;;5.97;;
43146;SDS011;28752;48.266;7.402;2023-05-16T03:41:23;8.93;;;5.47;;
43146;SDS011;28752;48.266;7.402;2023-05-16T03:43:48;8.53;;;5.47;;
43146;SDS011;28752;48.266;7.402;2023-05-16T03:46:13;11.93;;;6.20;;
43146;SDS011;28752;48.266;7.402;2023-05-16T03:48:39;10.67;;;6.30;;
43146;SDS011;28752;48.266;7.402;2023-05-16T03:51:04;9.33;;;5.33;;
43146;SDS011;28752;48.266;7.402;2023-05-16T03:53:29;9.63;;;5.80;;
43146;SDS011;28752;48.266;7.402;2023-05-16T03:55:55;10.37;;;5.73;;
43146;SDS011;28752;48.266;7.402;2023-05-16T03:58:20;10.17;;;5.67;;
43146;SDS011;28752;48.266;7.402;2023-05-16T04:00:46;12.20;;;5.87;;
43146;SDS011;28752;48.266;7.402;2023-05-16T04:03:11;10.20;;;5.47;;
43146;SDS011;28752;48.266;7.402;2023-05-16T04:05:36;12.13;;;6.47;;
43146;SDS011;28752;48.266;7.402;2023-05-16T04:08:02;10.53;;;6.17;;
43146;SDS011;28752;48.266;7.402;2023-05-16T04:10:27;12.17;;;5.93;;
43146;SDS011;28752;48.266;7.402;2023-05-16T04:12:53;10.88;;;6.28;;
43146;SDS011;28752;48.266;7.402;2023-05-16T04:15:19;12.23;;;7.13;;
43146;SDS011;28752;48.266;7.402;2023-05-16T04:17:44;11.98;;;6.60;;
43146;SDS011;28752;48.266;7.402;2023-05-16T04:20:10;13.17;;;6.83;;
43146;SDS011;28752;48.266;7.402;2023-05-16T04:22:35;11.40;;;7.07;;
43146;SDS011;28752;48.266;7.402;2023-05-16T04:25:01;12.33;;;6.53;;
43146;SDS011;28752;48.266;7.402;2023-05-16T04:27:26;11.90;;;7.13;;
43146;SDS011;28752;48.266;7.402;2023-05-16T04:29:51;13.97;;;6.93;;
43146;SDS011;28752;48.266;7.402;2023-05-16T04:32:17;12.93;;;7.23;;
43146;SDS011;28752;48.266;7.402;2023-05-16T04:34:43;13.48;;;7.50;;
43146;SDS011;28752;48.266;7.402;2023-05-16T04:37:09;13.70;;;8.05;;
43146;SDS011;28752;48.266;7.402;2023-05-16T04:39:35;12.53;;;7.73;;
43146;SDS011;28752;48.266;7.402;2023-05-16T04:42:00;14.65;;;7.30;;
43146;SDS011;28752;48.266;7.402;2023-05-16T04:44:26;12.02;;;6.90;;
43146;SDS011;28752;48.266;7.402;2023-05-16T04:46:52;13.18;;;7.28;;
43146;SDS011;28752;48.266;7.402;2023-05-16T04:49:18;14.25;;;7.53;;
43146;SDS011;28752;48.266;7.402;2023-05-16T04:51:43;13.07;;;7.32;;
43146;SDS011;28752;48.266;7.402;2023-05-16T04:54:09;15.27;;;7.77;;
43146;SDS011;28752;48.266;7.402;2023-05-16T04:56:34;14.32;;;7.88;;
43146;SDS011;28752;48.266;7.402;2023-05-16T04:59:00;15.95;;;8.27;;
43146;SDS011;28752;48.266;7.402;2023-05-16T05:01:25;15.70;;;8.43;;
43146;SDS011;28752;48.266;7.402;2023-05-16T05:03:51;14.33;;;7.97;;
43146;SDS011;28752;48.266;7.402;2023-05-16T05:06:16;16.20;;;8.47;;
43146;SDS011;28752;48.266;7.402;2023-05-16T05:08:41;16.57;;;8.80;;
43146;SDS011;28752;48.266;7.402;2023-05-16T05:11:07;14.83;;;7.70;;
43146;SDS011;28752;48.266;7.402;2023-05-16T05:13:32;16.07;;;8.50;;
43146;SDS011;28752;48.266;7.402;2023-05-16T05:15:57;15.07;;;8.37;;
43146;SDS011;28752;48.266;7.402;2023-05-16T05:18:23;19.37;;;8.27;;
43146;SDS011;28752;48.266;7.402;2023-05-16T05:20:48;16.63;;;8.83;;
43146;SDS011;28752;48.266;7.402;2023-05-16T05:23:14;16.02;;;7.97;;
43146;SDS011;28752;48.266;7.402;2023-05-16T05:25:39;16.00;;;8.73;;
43146;SDS011;28752;48.266;7.402;2023-05-16T05:28:05;14.93;;;7.60;;
43146;SDS011;28752;48.266;7.402;2023-05-16T05:30:30;15.50;;;8.23;;
43146;SDS011;28752;48.266;7.402;2023-05-16T05:32:56;16.67;;;8.57;;
43146;SDS011;28752;48.266;7.402;2023-05-16T05:35:21;16.53;;;8.93;;
43146;SDS011;28752;48.266;7.402;2023-05-16T05:37:47;14.23;;;8.07;;
43146;SDS011;28752;48.266;7.402;2023-05-16T05:40:12;14.90;;;7.70;;
43146;SDS011;28752;48.266;7.402;2023-05-16T05:42:38;14.23;;;8.10;;
43146;SDS011;28752;48.266;7.402;2023-05-16T05:45:03;12.67;;;7.30;;
43146;SDS011;28752;48.266;7.402;2023-05-16T05:47:29;13.02;;;7.32;;
43146;SDS011;28752;48.266;7.402;2023-05-16T05:49:54;13.20;;;7.55;;
43146;SDS011;28752;48.266;7.402;2023-05-16T05:52:20;12.60;;;6.70;;
43146;SDS011;28752;48.266;7.402;2023-05-16T05:54:46;13.57;;;6.83;;
43146;SDS011;28752;48.266;7.402;2023-05-16T05:57:12;13.05;;;7.65;;
43146;SDS011;28752;48.266;7.402;2023-05-16T05:59:37;16.00;;;9.30;;
43146;SDS011;28752;48.266;7.402;2023-05-16T06:02:03;19.37;;;10.50;;
43146;SDS011;28752;48.266;7.402;2023-05-16T06:04:28;20.80;;;10.73;;
43146;SDS011;28752;48.266;7.402;2023-05-16T06:06:54;19.40;;;11.00;;
43146;SDS011;28752;48.266;7.402;2023-05-16T06:09:20;18.10;;;10.37;;
43146;SDS011;28752;48.266;7.402;2023-05-16T06:11:47;14.80;;;8.05;;
43146;SDS011;28752;48.266;7.402;2023-05-16T06:14:13;15.20;;;8.25;;
43146;SDS011;28752;48.266;7.402;2023-05-16T06:19:05;15.50;;;7.65;;
43146;SDS011;28752;48.266;7.402;2023-05-16T06:21:31;15.10;;;7.53;;
43146;SDS011;28752;48.266;7.402;2023-05-16T06:23:57;13.50;;;7.78;;
43146;SDS011;28752;48.266;7.402;2023-05-16T06:26:22;14.65;;;9.05;;
43146;SDS011;28752;48.266;7.402;2023-05-16T06:28:48;17.92;;;8.55;;
43146;SDS011;28752;48.266;7.402;2023-05-16T06:31:14;15.20;;;7.93;;
43146;SDS011;28752;48.266;7.402;2023-05-16T06:33:39;24.43;;;10.60;;
43146;SDS011;28752;48.266;7.402;2023-05-16T06:36:04;18.30;;;9.50;;
43146;SDS011;28752;48.266;7.402;2023-05-16T06:38:30;14.68;;;7.88;;
43146;SDS011;28752;48.266;7.402;2023-05-16T06:40:56;13.73;;;6.53;;
43146;SDS011;28752;48.266;7.402;2023-05-16T06:43:21;13.10;;;6.23;;
43146;SDS011;28752;48.266;7.402;2023-05-16T06:45:47;15.32;;;7.15;;
43146;SDS011;28752;48.266;7.402;2023-05-16T06:48:12;13.40;;;6.63;;
43146;SDS011;28752;48.266;7.402;2023-05-16T06:50:39;13.93;;;6.13;;
43146;SDS011;28752;48.266;7.402;2023-05-16T06:53:05;16.05;;;7.25;;
43146;SDS011;28752;48.266;7.402;2023-05-16T06:55:31;16.27;;;6.45;;
43146;SDS011;28752;48.266;7.402;2023-05-16T06:57:57;14.23;;;6.05;;
43146;SDS011;28752;48.266;7.402;2023-05-16T07:00:22;11.60;;;5.57;;
43146;SDS011;28752;48.266;7.402;2023-05-16T07:02:48;14.57;;;6.77;;
43146;SDS011;28752;48.266;7.402;2023-05-16T07:05:13;13.23;;;6.47;;
43146;SDS011;28752;48.266;7.402;2023-05-16T07:07:39;14.73;;;7.17;;
43146;SDS011;28752;48.266;7.402;2023-05-16T07:10:04;13.00;;;7.20;;
43146;SDS011;28752;48.266;7.402;2023-05-16T07:12:31;13.45;;;6.72;;
43146;SDS011;28752;48.266;7.402;2023-05-16T07:14:56;14.57;;;6.80;;
43146;SDS011;28752;48.266;7.402;2023-05-16T07:17:21;13.27;;;6.63;;
43146;SDS011;28752;48.266;7.402;2023-05-16T07:19:47;14.87;;;7.50;;
43146;SDS011;28752;48.266;7.402;2023-05-16T07:22:13;13.30;;;7.25;;
43146;SDS011;28752;48.266;7.402;2023-05-16T07:24:38;15.83;;;7.60;;
43146;SDS011;28752;48.266;7.402;2023-05-16T07:27:04;15.00;;;7.17;;
43146;SDS011;28752;48.266;7.402;2023-05-16T07:29:29;13.80;;;7.03;;
43146;SDS011;28752;48.266;7.402;2023-05-16T07:31:54;16.47;;;7.87;;
43146;SDS011;28752;48.266;7.402;2023-05-16T07:34:20;14.53;;;6.73;;
43146;SDS011;28752;48.266;7.402;2023-05-16T07:36:45;11.53;;;5.60;;
43146;SDS011;28752;48.266;7.402;2023-05-16T07:39:11;10.93;;;5.50;;
43146;SDS011;28752;48.266;7.402;2023-05-16T07:41:36;11.87;;;5.40;;
43146;SDS011;28752;48.266;7.402;2023-05-16T07:44:02;10.77;;;5.45;;
43146;SDS011;28752;48.266;7.402;2023-05-16T07:46:27;11.10;;;4.97;;
43146;SDS011;28752;48.266;7.402;2023-05-16T07:48:52;9.60;;;4.80;;
43146;SDS011;28752;48.266;7.402;2023-05-16T07:51:18;10.63;;;5.33;;
43146;SDS011;28752;48.266;7.402;2023-05-16T07:53:43;13.23;;;6.07;;
43146;SDS011;28752;48.266;7.402;2023-05-16T07:56:08;10.80;;;5.23;;
43146;SDS011;28752;48.266;7.402;2023-05-16T07:58:34;12.30;;;5.30;;
43146;SDS011;28752;48.266;7.402;2023-05-16T08:01:00;12.80;;;5.40;;
43146;SDS011;28752;48.266;7.402;2023-05-16T08:03:25;9.33;;;4.67;;
43146;SDS011;28752;48.266;7.402;2023-05-16T08:05:51;9.27;;;4.80;;
43146;SDS011;28752;48.266;7.402;2023-05-16T08:08:16;9.88;;;5.03;;
43146;SDS011;28752;48.266;7.402;2023-05-16T08:10:42;10.90;;;5.13;;
43146;SDS011;28752;48.266;7.402;2023-05-16T08:13:08;9.85;;;4.80;;
43146;SDS011;28752;48.266;7.402;2023-05-16T08:15:33;10.07;;;5.63;;
43146;SDS011;28752;48.266;7.402;2023-05-16T08:17:59;11.50;;;5.50;;
43146;SDS011;28752;48.266;7.402;2023-05-16T08:20:25;11.68;;;5.47;;
43146;SDS011;28752;48.266;7.402;2023-05-16T08:22:51;11.52;;;6.03;;
43146;SDS011;28752;48.266;7.402;2023-05-16T08:25:16;10.47;;;5.10;;
43146;SDS011;28752;48.266;7.402;2023-05-16T08:27:43;9.80;;;4.75;;
43146;SDS011;28752;48.266;7.402;2023-05-16T08:30:10;9.73;;;4.72;;
43146;SDS011;28752;48.266;7.402;2023-05-16T08:32:36;8.98;;;4.70;;
43146;SDS011;28752;48.266;7.402;2023-05-16T08:35:01;11.50;;;5.23;;
43146;SDS011;28752;48.266;7.402;2023-05-16T08:37:26;9.87;;;4.80;;
43146;SDS011;28752;48.266;7.402;2023-05-16T08:39:52;11.70;;;4.70;;
43146;SDS011;28752;48.266;7.402;2023-05-16T08:42:17;10.97;;;5.17;;
43146;SDS011;28752;48.266;7.402;2023-05-16T08:44:42;11.53;;;4.97;;
43146;SDS011;28752;48.266;7.402;2023-05-16T08:47:12;10.10;;;3.87;;
43146;SDS011;28752;48.266;7.402;2023-05-16T08:49:46;15.23;;;6.32;;
43146;SDS011;28752;48.266;7.402;2023-05-16T08:52:12;10.27;;;5.10;;
43146;SDS011;28752;48.266;7.402;2023-05-16T08:54:42;12.00;;;5.45;;
43146;SDS011;28752;48.266;7.402;2023-05-16T08:57:09;12.07;;;4.47;;
43146;SDS011;28752;48.266;7.402;2023-05-16T08:59:34;9.57;;;4.38;;
43146;SDS011;28752;48.266;7.402;2023-05-16T09:02:00;10.10;;;4.40;;
43146;SDS011;28752;48.266;7.402;2023-05-16T09:04:26;11.30;;;4.77;;
43146;SDS011;28752;48.266;7.402;2023-05-16T09:06:51;8.32;;;3.80;;
43146;SDS011;28752;48.266;7.402;2023-05-16T09:09:17;9.68;;;4.35;;
43146;SDS011;28752;48.266;7.402;2023-05-16T09:11:43;9.27;;;3.97;;
43146;SDS011;28752;48.266;7.402;2023-05-16T09:14:09;7.95;;;3.10;;
43146;SDS011;28752;48.266;7.402;2023-05-16T09:16:34;7.70;;;3.50;;
43146;SDS011;28752;48.266;7.402;2023-05-16T09:19:00;7.70;;;3.27;;
43146;SDS011;28752;48.266;7.402;2023-05-16T09:21:27;7.40;;;3.47;;
43146;SDS011;28752;48.266;7.402;2023-05-16T09:23:53;9.95;;;3.78;;
43146;SDS011;28752;48.266;7.402;2023-05-16T09:26:19;7.88;;;4.18;;
43146;SDS011;28752;48.266;7.402;2023-05-16T09:28:45;7.22;;;3.30;;
43146;SDS011;28752;48.266;7.402;2023-05-16T09:31:44;9.73;;;4.78;;
43146;SDS011;28752;48.266;7.402;2023-05-16T09:34:06;7.72;;;4.65;;
43146;SDS011;28752;48.266;7.402;2023-05-16T09:36:33;11.43;;;5.30;;
43146;SDS011;28752;48.266;7.402;2023-05-16T09:38:59;6.63;;;3.50;;
43146;SDS011;28752;48.266;7.402;2023-05-16T09:46:15;4.73;;;2.00;;
43146;SDS011;28752;48.266;7.402;2023-05-16T09:48:44;4.60;;;1.80;;
43146;SDS011;28752;48.266;7.402;2023-05-16T09:51:11;4.18;;;1.77;;
43146;SDS011;28752;48.266;7.402;2023-05-16T09:58:33;4.35;;;2.05;;
43146;SDS011;28752;48.266;7.402;2023-05-16T10:00:59;4.53;;;1.90;;
43146;SDS011;28752;48.266;7.402;2023-05-16T10:03:26;4.75;;;2.03;;
43146;SDS011;28752;48.266;7.402;2023-05-16T10:05:52;4.88;;;1.90;;
43146;SDS011;28752;48.266;7.402;2023-05-16T10:08:19;4.72;;;2.40;;
43146;SDS011;28752;48.266;7.402;2023-05-16T10:10:58;4.05;;;1.85;;
43146;SDS011;28752;48.266;7.402;2023-05-16T10:13:27;4.70;;;2.03;;
43146;SDS011;28752;48.266;7.402;2023-05-16T10:15:57;3.92;;;1.60;;
43146;SDS011;28752;48.266;7.402;2023-05-16T10:18:28;4.28;;;1.75;;
43146;SDS011;28752;48.266;7.402;2023-05-16T10:20:54;3.58;;;1.77;;
43146;SDS011;28752;48.266;7.402;2023-05-16T10:23:21;3.80;;;1.80;;
43146;SDS011;28752;48.266;7.402;2023-05-16T10:25:50;5.03;;;1.90;;
43146;SDS011;28752;48.266;7.402;2023-05-16T10:28:16;3.95;;;1.80;;
43146;SDS011;28752;48.266;7.402;2023-05-16T10:30:41;5.00;;;2.00;;
43146;SDS011;28752;48.266;7.402;2023-05-16T10:33:12;4.25;;;1.88;;
43146;SDS011;28752;48.266;7.402;2023-05-16T10:35:39;4.70;;;2.13;;
43146;SDS011;28752;48.266;7.402;2023-05-16T10:38:06;5.22;;;1.63;;
43146;SDS011;28752;48.266;7.402;2023-05-16T10:40:34;3.63;;;1.60;;
43146;SDS011;28752;48.266;7.402;2023-05-16T10:43:02;5.50;;;1.85;;
43146;SDS011;28752;48.266;7.402;2023-05-16T10:45:28;5.55;;;2.53;;
43146;SDS011;28752;48.266;7.402;2023-05-16T10:47:55;5.60;;;1.98;;
43146;SDS011;28752;48.266;7.402;2023-05-16T10:56:10;4.53;;;2.22;;
43146;SDS011;28752;48.266;7.402;2023-05-16T11:01:16;4.07;;;1.80;;
43146;SDS011;28752;48.266;7.402;2023-05-16T11:06:24;5.07;;;2.00;;
43146;SDS011;28752;48.266;7.402;2023-05-16T11:11:42;3.10;;;1.38;;
43146;SDS011;28752;48.266;7.402;2023-05-16T11:14:28;3.17;;;1.35;;
43146;SDS011;28752;48.266;7.402;2023-05-16T11:17:01;3.17;;;1.30;;
43146;SDS011;28752;48.266;7.402;2023-05-16T11:19:41;3.47;;;1.50;;
43146;SDS011;28752;48.266;7.402;2023-05-16T11:30:16;2.03;;;0.98;;
43146;SDS011;28752;48.266;7.402;2023-05-16T11:32:44;1.77;;;0.93;;
43146;SDS011;28752;48.266;7.402;2023-05-16T11:35:12;1.42;;;0.85;;
43146;SDS011;28752;48.266;7.402;2023-05-16T11:37:39;1.98;;;0.80;;
43146;SDS011;28752;48.266;7.402;2023-05-16T11:40:05;2.40;;;0.90;;
43146;SDS011;28752;48.266;7.402;2023-05-16T11:42:39;2.60;;;1.00;;
43146;SDS011;28752;48.266;7.402;2023-05-16T11:45:06;1.90;;;0.90;;
43146;SDS011;28752;48.266;7.402;2023-05-16T11:47:50;2.05;;;0.80;;
43146;SDS011;28752;48.266;7.402;2023-05-16T11:50:19;2.13;;;1.08;;
43146;SDS011;28752;48.266;7.402;2023-05-16T11:52:48;2.00;;;0.88;;
43146;SDS011;28752;48.266;7.402;2023-05-16T11:55:18;2.67;;;1.00;;
43146;SDS011;28752;48.266;7.402;2023-05-16T11:57:45;2.95;;;1.40;;
43146;SDS011;28752;48.266;7.402;2023-05-16T12:00:13;1.85;;;1.00;;
43146;SDS011;28752;48.266;7.402;2023-05-16T12:02:43;2.47;;;1.00;;
43146;SDS011;28752;48.266;7.402;2023-05-16T12:07:36;2.33;;;1.02;;
43146;SDS011;28752;48.266;7.402;2023-05-16T12:10:09;2.13;;;1.02;;
43146;SDS011;28752;48.266;7.402;2023-05-16T12:12:36;3.30;;;1.30;;
43146;SDS011;28752;48.266;7.402;2023-05-16T12:15:03;2.78;;;1.08;;
43146;SDS011;28752;48.266;7.402;2023-05-16T12:17:36;2.65;;;1.20;;
43146;SDS011;28752;48.266;7.402;2023-05-16T12:20:03;1.70;;;1.00;;
43146;SDS011;28752;48.266;7.402;2023-05-16T12:22:30;2.78;;;1.27;;
43146;SDS011;28752;48.266;7.402;2023-05-16T12:24:59;2.97;;;1.58;;
43146;SDS011;28752;48.266;7.402;2023-05-16T12:27:41;2.50;;;1.40;;
43146;SDS011;28752;48.266;7.402;2023-05-16T12:30:07;2.63;;;1.10;;
43146;SDS011;28752;48.266;7.402;2023-05-16T12:32:35;2.35;;;1.25;;
43146;SDS011;28752;48.266;7.402;2023-05-16T12:35:01;4.50;;;1.60;;
43146;SDS011;28752;48.266;7.402;2023-05-16T12:37:26;2.63;;;1.00;;
43146;SDS011;28752;48.266;7.402;2023-05-16T12:39:58;2.33;;;1.20;;
43146;SDS011;28752;48.266;7.402;2023-05-16T12:42:25;3.28;;;1.40;;
43146;SDS011;28752;48.266;7.402;2023-05-16T12:44:54;3.10;;;1.35;;
43146;SDS011;28752;48.266;7.402;2023-05-16T12:47:20;1.92;;;1.10;;
43146;SDS011;28752;48.266;7.402;2023-05-16T12:49:46;2.53;;;1.20;;
43146;SDS011;28752;48.266;7.402;2023-05-16T12:52:18;2.67;;;1.05;;
43146;SDS011;28752;48.266;7.402;2023-05-16T12:54:45;2.75;;;1.17;;
43146;SDS011;28752;48.266;7.402;2023-05-16T12:57:11;4.40;;;1.40;;
43146;SDS011;28752;48.266;7.402;2023-05-16T12:59:36;2.37;;;1.20;;
43146;SDS011;28752;48.266;7.402;2023-05-16T13:02:02;2.53;;;1.00;;
43146;SDS011;28752;48.266;7.402;2023-05-16T13:04:27;2.58;;;1.20;;
43146;SDS011;28752;48.266;7.402;2023-05-16T13:06:53;2.75;;;1.00;;
43146;SDS011;28752;48.266;7.402;2023-05-16T13:09:18;2.57;;;1.27;;
43146;SDS011;28752;48.266;7.402;2023-05-16T13:11:45;3.63;;;1.33;;
43146;SDS011;28752;48.266;7.402;2023-05-16T13:14:10;3.13;;;0.93;;
43146;SDS011;28752;48.266;7.402;2023-05-16T13:16:35;2.27;;;1.10;;
43146;SDS011;28752;48.266;7.402;2023-05-16T13:19:01;3.10;;;1.00;;
43146;SDS011;28752;48.266;7.402;2023-05-16T13:21:26;2.15;;;0.80;;
43146;SDS011;28752;48.266;7.402;2023-05-16T13:23:54;3.22;;;1.25;;
43146;SDS011;28752;48.266;7.402;2023-05-16T13:26:19;1.67;;;0.80;;
43146;SDS011;28752;48.266;7.402;2023-05-16T13:31:11;3.17;;;1.02;;
43146;SDS011;28752;48.266;7.402;2023-05-16T13:33:36;2.67;;;0.80;;
43146;SDS011;28752;48.266;7.402;2023-05-16T13:36:02;1.87;;;0.83;;
43146;SDS011;28752;48.266;7.402;2023-05-16T13:38:27;1.23;;;0.70;;
43146;SDS011;28752;48.266;7.402;2023-05-16T13:40:53;2.63;;;0.90;;
43146;SDS011;28752;48.266;7.402;2023-05-16T13:43:18;3.73;;;1.77;;
43146;SDS011;28752;48.266;7.402;2023-05-16T13:45:43;3.73;;;1.40;;
43146;SDS011;28752;48.266;7.402;2023-05-16T13:48:09;3.43;;;1.27;;
43146;SDS011;28752;48.266;7.402;2023-05-16T13:50:35;3.47;;;1.13;;
43146;SDS011;28752;48.266;7.402;2023-05-16T13:53:01;2.30;;;1.00;;
43146;SDS011;28752;48.266;7.402;2023-05-16T13:55:26;2.70;;;1.10;;
43146;SDS011;28752;48.266;7.402;2023-05-16T13:57:52;1.50;;;0.83;;
43146;SDS011;28752;48.266;7.402;2023-05-16T14:00:17;5.47;;;2.47;;
43146;SDS011;28752;48.266;7.402;2023-05-16T14:02:43;3.50;;;1.35;;
43146;SDS011;28752;48.266;7.402;2023-05-16T14:05:08;3.13;;;0.90;;
43146;SDS011;28752;48.266;7.402;2023-05-16T14:07:34;2.55;;;1.30;;
43146;SDS011;28752;48.266;7.402;2023-05-16T14:09:59;2.73;;;1.10;;
43146;SDS011;28752;48.266;7.402;2023-05-16T14:12:25;2.27;;;0.80;;
43146;SDS011;28752;48.266;7.402;2023-05-16T14:14:50;4.13;;;1.30;;
43146;SDS011;28752;48.266;7.402;2023-05-16T14:17:16;4.67;;;1.70;;
43146;SDS011;28752;48.266;7.402;2023-05-16T14:19:41;2.73;;;1.20;;
43146;SDS011;28752;48.266;7.402;2023-05-16T14:22:06;2.53;;;0.90;;
43146;SDS011;28752;48.266;7.402;2023-05-16T14:24:32;5.63;;;2.00;;
43146;SDS011;28752;48.266;7.402;2023-05-16T14:26:58;2.20;;;1.00;;
43146;SDS011;28752;48.266;7.402;2023-05-16T14:31:49;1.80;;;0.90;;
43146;SDS011;28752;48.266;7.402;2023-05-16T14:34:15;1.73;;;0.83;;
43146;SDS011;28752;48.266;7.402;2023-05-16T14:36:40;1.47;;;0.77;;
43146;SDS011;28752;48.266;7.402;2023-05-16T14:39:05;2.07;;;0.90;;
43146;SDS011;28752;48.266;7.402;2023-05-16T14:43:57;3.20;;;1.20;;
43146;SDS011;28752;48.266;7.402;2023-05-16T14:46:22;2.93;;;1.00;;
43146;SDS011;28752;48.266;7.402;2023-05-16T14:48:48;2.00;;;1.10;;
43146;SDS011;28752;48.266;7.402;2023-05-16T14:51:13;3.17;;;1.20;;
43146;SDS011;28752;48.266;7.402;2023-05-16T14:53:39;4.95;;;2.08;;
43146;SDS011;28752;48.266;7.402;2023-05-16T14:56:04;4.00;;;1.23;;
43146;SDS011;28752;48.266;7.402;2023-05-16T14:58:30;7.20;;;2.25;;
43146;SDS011;28752;48.266;7.402;2023-05-16T15:00:55;4.73;;;1.50;;
43146;SDS011;28752;48.266;7.402;2023-05-16T15:03:21;4.07;;;1.37;;
43146;SDS011;28752;48.266;7.402;2023-05-16T15:05:46;4.30;;;1.48;;
43146;SDS011;28752;48.266;7.402;2023-05-16T15:08:11;4.97;;;1.90;;
43146;SDS011;28752;48.266;7.402;2023-05-16T15:10:37;4.83;;;1.77;;
43146;SDS011;28752;48.266;7.402;2023-05-16T15:13:02;6.40;;;1.90;;
43146;SDS011;28752;48.266;7.402;2023-05-16T15:15:28;5.88;;;2.45;;
43146;SDS011;28752;48.266;7.402;2023-05-16T15:17:53;3.47;;;1.50;;
43146;SDS011;28752;48.266;7.402;2023-05-16T15:20:19;3.33;;;1.47;;
43146;SDS011;28752;48.266;7.402;2023-05-16T15:22:44;4.03;;;1.52;;
43146;SDS011;28752;48.266;7.402;2023-05-16T15:25:10;3.97;;;1.50;;
43146;SDS011;28752;48.266;7.402;2023-05-16T15:27:35;4.10;;;1.60;;
43146;SDS011;28752;48.266;7.402;2023-05-16T15:30:00;2.30;;;1.10;;
43146;SDS011;28752;48.266;7.402;2023-05-16T15:32:26;4.87;;;2.03;;
43146;SDS011;28752;48.266;7.402;2023-05-16T15:34:51;5.23;;;1.93;;
43146;SDS011;28752;48.266;7.402;2023-05-16T15:37:17;6.90;;;2.30;;
43146;SDS011;28752;48.266;7.402;2023-05-16T15:39:42;4.03;;;1.17;;
43146;SDS011;28752;48.266;7.402;2023-05-16T15:42:08;2.35;;;1.10;;
43146;SDS011;28752;48.266;7.402;2023-05-16T15:44:35;5.40;;;1.50;;
43146;SDS011;28752;48.266;7.402;2023-05-16T15:47:01;3.20;;;1.42;;
43146;SDS011;28752;48.266;7.402;2023-05-16T15:49:27;5.73;;;2.53;;
43146;SDS011;28752;48.266;7.402;2023-05-16T15:51:52;3.93;;;1.60;;
43146;SDS011;28752;48.266;7.402;2023-05-16T15:54:18;3.03;;;1.30;;
43146;SDS011;28752;48.266;7.402;2023-05-16T15:56:44;3.70;;;1.15;;
43146;SDS011;28752;48.266;7.402;2023-05-16T15:59:10;3.03;;;1.10;;
43146;SDS011;28752;48.266;7.402;2023-05-16T16:01:36;3.35;;;1.42;;
43146;SDS011;28752;48.266;7.402;2023-05-16T16:04:01;4.80;;;1.30;;
43146;SDS011;28752;48.266;7.402;2023-05-16T16:06:26;2.50;;;1.13;;
43146;SDS011;28752;48.266;7.402;2023-05-16T16:08:53;9.77;;;2.10;;
43146;SDS011;28752;48.266;7.402;2023-05-16T16:11:19;2.33;;;1.33;;
43146;SDS011;28752;48.266;7.402;2023-05-16T16:13:47;3.72;;;1.40;;
43146;SDS011;28752;48.266;7.402;2023-05-16T16:16:13;3.55;;;1.40;;
43146;SDS011;28752;48.266;7.402;2023-05-16T16:18:39;2.92;;;1.27;;
43146;SDS011;28752;48.266;7.402;2023-05-16T16:21:05;4.73;;;1.80;;
43146;SDS011;28752;48.266;7.402;2023-05-16T16:23:31;3.88;;;1.75;;
43146;SDS011;28752;48.266;7.402;2023-05-16T16:25:56;4.50;;;1.50;;
43146;SDS011;28752;48.266;7.402;2023-05-16T16:28:22;5.37;;;1.77;;
43146;SDS011;28752;48.266;7.402;2023-05-16T16:30:47;3.53;;;1.57;;
43146;SDS011;28752;48.266;7.402;2023-05-16T16:33:14;5.20;;;2.05;;
43146;SDS011;28752;48.266;7.402;2023-05-16T16:35:40;4.28;;;1.98;;
43146;SDS011;28752;48.266;7.402;2023-05-16T16:38:05;5.90;;;1.53;;
43146;SDS011;28752;48.266;7.402;2023-05-16T16:40:31;4.63;;;1.83;;
43146;SDS011;28752;48.266;7.402;2023-05-16T16:42:56;4.70;;;1.90;;
43146;SDS011;28752;48.266;7.402;2023-05-16T16:45:22;4.15;;;1.80;;
43146;SDS011;28752;48.266;7.402;2023-05-16T16:47:48;5.13;;;1.80;;
43146;SDS011;28752;48.266;7.402;2023-05-16T16:50:13;4.60;;;1.90;;
43146;SDS011;28752;48.266;7.402;2023-05-16T16:52:38;4.07;;;1.80;;
43146;SDS011;28752;48.266;7.402;2023-05-16T16:55:04;6.63;;;2.20;;
43146;SDS011;28752;48.266;7.402;2023-05-16T16:57:30;3.78;;;1.88;;
43146;SDS011;28752;48.266;7.402;2023-05-16T16:59:55;4.18;;;1.75;;
43146;SDS011;28752;48.266;7.402;2023-05-16T17:02:23;4.72;;;1.88;;
43146;SDS011;28752;48.266;7.402;2023-05-16T17:04:49;4.80;;;1.50;;
43146;SDS011;28752;48.266;7.402;2023-05-16T17:07:15;4.83;;;1.80;;
43146;SDS011;28752;48.266;7.402;2023-05-16T17:09:40;6.20;;;2.10;;
43146;SDS011;28752;48.266;7.402;2023-05-16T17:14:38;5.85;;;3.10;;
43146;SDS011;28752;48.266;7.402;2023-05-16T17:17:04;5.10;;;2.13;;
43146;SDS011;28752;48.266;7.402;2023-05-16T17:19:29;4.43;;;1.60;;
43146;SDS011;28752;48.266;7.402;2023-05-16T17:21:55;5.57;;;2.00;;
43146;SDS011;28752;48.266;7.402;2023-05-16T17:24:20;5.57;;;2.03;;
43146;SDS011;28752;48.266;7.402;2023-05-16T17:26:45;5.77;;;1.80;;
43146;SDS011;28752;48.266;7.402;2023-05-16T17:29:11;3.57;;;1.73;;
43146;SDS011;28752;48.266;7.402;2023-05-16T17:31:36;6.50;;;1.83;;
43146;SDS011;28752;48.266;7.402;2023-05-16T17:34:01;5.47;;;2.50;;
43146;SDS011;28752;48.266;7.402;2023-05-16T17:36:27;5.00;;;1.90;;
43146;SDS011;28752;48.266;7.402;2023-05-16T17:38:52;5.50;;;1.80;;
43146;SDS011;28752;48.266;7.402;2023-05-16T17:41:18;6.13;;;2.03;;